»·PEaware :: N1121L KLAS-KRNO

N1121L :: KLAS-KRNO

FLIGHT INFORMATION

Flight Status: Arrived
Operator: Privately registered:
United States
More flights under this callsign
Pilot: Heberto L. (27891)
Aircraft: SOCATA TBM-900
(TBM9)
More flights by this aircraft type
Origin: KLAS McCarran Intl
United States
Destination: KRNO Reno/Tahoe Intl
United States
More flights between these airports :: More routes between these airports
Route: +LAS V105 FMG
File this flight plan on PilotEdge
Remarks: ttv / exoZeek
Altitude:
(Current/Filed)
28,000ft
Speed:
(Current/Filed)
310kts
Departed: 25-Mar-20 09:16 PM
Arrived: 25-Mar-20 10:32 PM
Distance/Time
Traveled:
300nm/1:15
Distance/Time
To Go:
Arrived

Flight Plot

Page will automatically refresh every two minutes.

Flight plan parsing failed; only flown route is shown


Map Options




Map Legend


Flown Route
Filed Route
Departure Airport
Arrival Airport
Navaid (VOR, NDB)
Fix

Horizontal Profiles

Position Reports

Time Latitude Longitude Heading Altitude Ground
Speed
25-Mar-20 20:36 36.081178 -115.171061 93 2168ft 0kts
25-Mar-20 20:37 36.081178 -115.171061 93 2168ft 0kts
25-Mar-20 20:38 36.081178 -115.171061 93 2168ft 0kts
25-Mar-20 20:39 36.081178 -115.171061 93 2168ft 0kts
25-Mar-20 20:40 36.081178 -115.171061 93 2168ft 0kts
25-Mar-20 20:41 36.081178 -115.171061 93 2168ft 0kts
25-Mar-20 20:42 36.081178 -115.171061 93 2168ft 0kts
25-Mar-20 20:43 36.081178 -115.171061 93 2168ft 0kts
25-Mar-20 20:44 36.081178 -115.171061 93 2168ft 0kts
25-Mar-20 20:45 36.081178 -115.171061 93 2168ft 0kts
25-Mar-20 20:46 36.081178 -115.171061 93 2168ft 0kts
25-Mar-20 20:47 36.081178 -115.171061 93 2168ft 0kts
25-Mar-20 20:48 36.081178 -115.171061 93 2168ft 0kts
25-Mar-20 20:49 36.081178 -115.171061 93 2168ft 0kts
25-Mar-20 20:50 36.081178 -115.171061 93 2168ft 0kts
25-Mar-20 20:51 36.081178 -115.171061 93 2168ft 0kts
25-Mar-20 20:52 36.081178 -115.171061 93 2168ft 0kts
25-Mar-20 20:53 36.081178 -115.171061 93 2168ft 0kts
25-Mar-20 20:54 36.081178 -115.171061 93 2168ft 0kts
25-Mar-20 20:55 36.081178 -115.171061 93 2168ft 0kts
25-Mar-20 20:56 36.081178 -115.171061 93 2168ft 0kts
25-Mar-20 20:57 36.081178 -115.171061 93 2168ft 0kts
25-Mar-20 20:58 36.081178 -115.171061 93 2168ft 0kts
25-Mar-20 20:59 36.081178 -115.171061 93 2168ft 0kts
25-Mar-20 21:00 36.081178 -115.171061 93 2168ft 0kts
25-Mar-20 21:01 36.081178 -115.171061 93 2168ft 0kts
25-Mar-20 21:02 36.081178 -115.171061 93 2168ft 0kts
25-Mar-20 21:03 36.081178 -115.171061 93 2168ft 0kts
25-Mar-20 21:04 36.081178 -115.171061 93 2168ft 0kts
25-Mar-20 21:05 36.081178 -115.171061 93 2168ft 0kts
25-Mar-20 21:06 36.081805 -115.169087 35 2163ft 12kts
25-Mar-20 21:07 36.085600 -115.166939 27 2149ft 16kts
25-Mar-20 21:08 36.090315 -115.164202 24 2128ft 20kts
25-Mar-20 21:09 36.095971 -115.160965 24 2101ft 22kts
25-Mar-20 21:10 36.099284 -115.158484 114 2088ft 0kts
25-Mar-20 21:11 36.099284 -115.158484 114 2088ft 0kts
25-Mar-20 21:12 36.099215 -115.158302 115 2088ft 3kts
25-Mar-20 21:13 36.099100 -115.158006 116 2087ft 0kts
25-Mar-20 21:14 36.099100 -115.158006 116 2087ft 0kts
25-Mar-20 21:15 36.092210 -115.160674 204 2110ft 110kts
25-Mar-20 21:16 36.060792 -115.187914 255 3717ft 150kts
25-Mar-20 21:17 36.072944 -115.243412 282 5612ft 176kts
25-Mar-20 21:18 36.088894 -115.301131 282 7650ft 170kts
25-Mar-20 21:19 36.099510 -115.361745 259 8207ft 168kts
25-Mar-20 21:20 36.091139 -115.392025 254 8673ft 81kts
25-Mar-20 21:21 36.088467 -115.424299 257 9571ft 113kts
25-Mar-20 21:22 36.084594 -115.466674 255 10486ft 131kts
25-Mar-20 21:23 36.079330 -115.519299 255 11819ft 155kts
25-Mar-20 21:24 36.074014 -115.572059 254 14025ft 146kts
25-Mar-20 21:25 36.069005 -115.620865 252 16140ft 137kts
25-Mar-20 21:26 36.063607 -115.672611 252 17272ft 160kts
25-Mar-20 21:27 36.057974 -115.727559 252 18568ft 156kts
25-Mar-20 21:28 36.052321 -115.782174 251 19664ft 155kts
25-Mar-20 21:29 36.046719 -115.835899 250 20616ft 154kts
25-Mar-20 21:30 36.041150 -115.889183 249 21517ft 150kts
25-Mar-20 21:31 36.035708 -115.941002 249 22424ft 144kts
25-Mar-20 21:32 36.030624 -115.989202 248 23373ft 138kts
25-Mar-20 21:33 36.057669 -116.037554 294 24075ft 216kts
25-Mar-20 21:34 36.108008 -116.085264 293 24816ft 215kts
25-Mar-20 21:35 36.157379 -116.131995 292 25605ft 211kts
25-Mar-20 21:36 36.206718 -116.178720 292 26329ft 211kts
25-Mar-20 21:37 36.256800 -116.227195 291 27129ft 231kts
25-Mar-20 21:38 36.309966 -116.284235 290 28019ft 253kts
25-Mar-20 21:39 36.366332 -116.351873 290 28014ft 277kts
25-Mar-20 21:40 36.423695 -116.425860 289 28010ft 284kts
25-Mar-20 21:41 36.480544 -116.502539 289 28009ft 288kts
25-Mar-20 21:42 36.537023 -116.580511 293 27997ft 298kts
25-Mar-20 21:43 36.623674 -116.635748 312 28002ft 339kts
25-Mar-20 21:44 36.711395 -116.690971 311 27882ft 339kts
25-Mar-20 21:45 36.799491 -116.747262 307 27880ft 330kts
25-Mar-20 21:46 36.878029 -116.812315 304 27884ft 324kts
25-Mar-20 21:47 36.957038 -116.878437 304 27884ft 325kts
25-Mar-20 21:48 37.035747 -116.944504 304 27883ft 325kts
25-Mar-20 21:49 37.114425 -117.010695 304 27859ft 326kts
25-Mar-20 21:50 37.193000 -117.076958 304 27854ft 324kts
25-Mar-20 21:51 37.271480 -117.143338 304 27846ft 324kts
25-Mar-20 21:52 37.350222 -117.210091 304 27846ft 324kts
25-Mar-20 21:53 37.428981 -117.277043 305 27847ft 325kts
25-Mar-20 21:54 37.507950 -117.344340 305 27848ft 326kts
25-Mar-20 21:55 37.586644 -117.411578 305 27848ft 326kts
25-Mar-20 21:56 37.665870 -117.479443 306 27849ft 327kts
25-Mar-20 21:57 37.744859 -117.547262 306 27850ft 328kts
25-Mar-20 21:58 37.823496 -117.614968 306 27856ft 329kts
25-Mar-20 21:59 37.901715 -117.682527 306 27882ft 330kts
25-Mar-20 22:01 37.981030 -117.751173 306 27885ft 331kts
25-Mar-20 22:02 38.049897 -117.826311 297 27886ft 314kts
25-Mar-20 22:03 38.115953 -117.905555 297 27863ft 314kts
25-Mar-20 22:04 38.181992 -117.985004 297 27860ft 312kts
25-Mar-20 22:05 38.248141 -118.064813 297 27858ft 311kts
25-Mar-20 22:06 38.315627 -118.146583 299 27127ft 326kts
25-Mar-20 22:07 38.385460 -118.231219 301 26049ft 330kts
25-Mar-20 22:08 38.454583 -118.315359 304 24304ft 337kts
25-Mar-20 22:09 38.512037 -118.403305 292 23891ft 297kts
25-Mar-20 22:10 38.559044 -118.491280 293 23894ft 287kts
25-Mar-20 22:11 38.604971 -118.578259 293 23895ft 285kts
25-Mar-20 22:12 38.650504 -118.668450 292 22898ft 306kts
25-Mar-20 22:13 38.695699 -118.765000 292 21692ft 308kts
25-Mar-20 22:14 38.739243 -118.863397 292 20475ft 311kts
25-Mar-20 22:15 38.781265 -118.963152 292 19264ft 312kts
25-Mar-20 22:16 38.822209 -119.064538 292 17856ft 314kts
25-Mar-20 22:17 38.862828 -119.169081 293 16303ft 313kts
25-Mar-20 22:17 38.894693 -119.253094 293 15958ft 286kts
25-Mar-20 22:19 38.937127 -119.364134 293 15957ft 274kts
25-Mar-20 22:20 38.973024 -119.457702 293 15954ft 274kts
25-Mar-20 22:20 39.003495 -119.537661 293 15020ft 295kts
25-Mar-20 22:21 39.040225 -119.637362 293 13463ft 291kts
25-Mar-20 22:23 39.098244 -119.727525 332 11620ft 279kts
25-Mar-20 22:23 39.155302 -119.761272 340 10296ft 247kts
25-Mar-20 22:24 39.222126 -119.769801 1 8968ft 227kts
25-Mar-20 22:26 39.289593 -119.769821 358 9011ft 176kts
25-Mar-20 22:26 39.330327 -119.769719 357 7969ft 168kts
25-Mar-20 22:27 39.376151 -119.769599 358 6928ft 148kts
25-Mar-20 22:28 39.413514 -119.769479 356 6118ft 108kts
25-Mar-20 22:29 39.443305 -119.769412 358 5418ft 105kts
25-Mar-20 22:30 39.473362 -119.769309 358 4735ft 106kts
25-Mar-20 22:31 39.495665 -119.769386 1 4418ft 28kts
25-Mar-20 22:32 39.497392 -119.766991 87 4418ft 12kts
25-Mar-20 22:33 39.499676 -119.765171 359 4418ft 10kts
25-Mar-20 22:34 39.501513 -119.764484 267 4418ft 0kts
25-Mar-20 22:35 39.501513 -119.764484 267 4418ft 0kts
25-Mar-20 22:36 39.501513 -119.764484 267 4418ft 0kts
25-Mar-20 22:37 39.501513 -119.764484 267 4418ft 0kts
25-Mar-20 22:38 39.501513 -119.764484 267 4418ft 0kts
25-Mar-20 22:39 39.501513 -119.764484 267 4418ft 0kts
25-Mar-20 22:40 39.501513 -119.764484 267 4418ft 0kts
25-Mar-20 22:41 39.501513 -119.764484 267 4418ft 0kts
25-Mar-20 22:42 39.501513 -119.764484 267 4418ft 0kts
25-Mar-20 22:43 39.501513 -119.764484 267 4418ft 0kts
25-Mar-20 22:44 39.501513 -119.764484 267 4418ft 0kts
25-Mar-20 22:45 39.501513 -119.764484 267 4418ft 0kts

Navigation Log

Ident Type
Flight plan parsing failed, navigation log unavailable